Time;durP1;ratioP1;P1;durP2;ratioP2;P2;SDS_P1;SDS_P2;PMS_P1;PMS_P2;Temp;Humidity;BMP_temperature;BMP_pressure;BME280_temperature;BME280_humidity;BME280_pressure;Samples;Min_cycle;Max_cycle;Signal;HPM_P1;HPM_P2
2022/02/09 00:03:51;;;;;;;2.80;1.70;;;7.30;31.50;;;;;;7366314;19;20373;-59
2022/02/09 00:06:38;;;;;;;3.95;2.40;;;7.30;31.50;;;;;;7367531;19;20019;-59
2022/02/09 00:09:08;;;;;;;6.65;2.45;;;7.30;31.50;;;;;;7364755;19;20023;-59
2022/02/09 00:11:46;;;;;;;5.00;2.67;;;7.30;30.30;;;;;;7363166;19;20011;-60
2022/02/09 00:14:25;;;;;;;2.78;1.70;;;7.30;30.30;;;;;;7367186;19;20413;-58
2022/02/09 00:19:53;;;;;;;5.57;2.42;;;7.30;29.40;;;;;;7362571;19;20097;-60
2022/02/09 00:22:36;;;;;;;2.90;1.52;;;7.40;29.10;;;;;;7367156;19;20090;-59
2022/02/09 00:28:15;;;;;;;3.25;1.55;;;7.40;28.00;;;;;;7387103;19;20014;-59
2022/02/09 00:31:14;;;;;;;3.25;1.98;;;7.40;27.90;;;;;;7361181;19;20006;-60
2022/02/09 00:45:04;;;;;;;5.18;2.10;;;7.40;27.10;;;;;;7365712;19;20086;-59
2022/02/09 01:32:59;;;;;;;3.10;2.10;;;7.40;27.20;;;;;;7361251;19;20020;-59
2022/02/09 01:39:55;;;;;;;4.80;2.17;;;7.30;27.90;;;;;;7376815;19;20021;-60
2022/02/09 01:56:02;;;;;;;4.78;2.13;;;7.30;27.90;;;;;;7365918;19;19914;-59
2022/02/09 01:58:33;;;;;;;5.18;2.13;;;7.30;27.90;;;;;;7361429;19;20010;-59
2022/02/09 02:01:03;;;;;;;4.15;2.00;;;7.20;27.80;;;;;;7356226;19;20052;-59
2022/02/09 02:03:33;;;;;;;5.68;2.13;;;7.30;27.90;;;;;;7379474;19;20492;-58
2022/02/09 02:06:06;;;;;;;3.92;2.00;;;7.30;27.90;;;;;;7358705;19;20480;-59
2022/02/09 02:08:36;;;;;;;2.72;1.70;;;7.30;27.90;;;;;;7360698;19;20035;-59
2022/02/09 02:11:13;;;;;;;2.78;1.60;;;7.30;27.50;;;;;;7354884;19;20011;-59
2022/02/09 02:14:01;;;;;;;3.80;1.77;;;7.30;27.10;;;;;;7357510;19;20015;-59
2022/02/09 02:16:36;;;;;;;3.88;1.60;;;7.30;27.70;;;;;;7361076;19;20047;-59
2022/02/09 02:19:14;;;;;;;4.00;1.77;;;7.20;28.30;;;;;;7359557;19;20423;-59
2022/02/09 02:21:58;;;;;;;2.90;1.80;;;7.10;28.40;;;;;;7374554;19;20376;-59
2022/02/09 02:25:01;;;;;;;1.95;1.70;;;7.20;29.50;;;;;;7356603;19;20508;-59
2022/02/09 02:27:54;;;;;;;4.88;1.80;;;7.20;29.60;;;;;;7360073;19;20030;-58
2022/02/09 02:33:27;;;;;;;4.72;1.70;;;7.20;29.50;;;;;;7361327;19;20032;-60
2022/02/09 02:36:17;;;;;;;5.95;1.98;;;7.20;29.70;;;;;;7361829;19;20028;-59
2022/02/09 02:58:53;;;;;;;5.72;3.13;;;7.20;29.30;;;;;;7368750;19;20024;-58
2022/02/09 03:09:56;;;;;;;2.25;1.80;;;7.20;28.80;;;;;;7365515;19;20350;-58
2022/02/09 03:12:37;;;;;;;6.05;2.00;;;7.20;28.90;;;;;;7367050;19;20039;-59
2022/02/09 03:15:25;;;;;;;3.30;1.85;;;7.20;29.10;;;;;;7367390;19;20003;-59
2022/02/09 03:18:08;;;;;;;2.92;1.70;;;7.20;29.40;;;;;;7366152;19;20514;-59
2022/02/09 03:20:45;;;;;;;4.72;2.50;;;7.10;30.00;;;;;;7360818;19;20085;-59
2022/02/09 03:23:39;;;;;;;4.35;2.90;;;7.10;30.20;;;;;;7366806;19;20015;-59
2022/02/09 03:26:31;;;;;;;5.32;2.97;;;7.10;30.70;;;;;;7370823;19;20006;-59
2022/02/09 03:43:02;;;;;;;4.60;2.85;;;7.10;30.60;;;;;;7390325;19;20131;-59
2022/02/09 03:54:02;;;;;;;5.35;3.70;;;7.00;30.60;;;;;;7362478;19;20003;-60
2022/02/09 03:56:44;;;;;;;7.25;3.67;;;7.00;30.80;;;;;;7369556;19;20010;-59
2022/02/09 03:59:15;;;;;;;7.30;3.60;;;7.00;30.70;;;;;;7365310;19;20482;-58
2022/02/09 04:01:49;;;;;;;5.68;3.80;;;7.00;30.70;;;;;;7361416;19;20074;-59
2022/02/09 04:04:19;;;;;;;7.55;3.90;;;7.00;30.50;;;;;;7367201;19;20481;-59
2022/02/09 04:06:51;;;;;;;8.40;4.10;;;7.10;30.60;;;;;;7387981;19;20010;-58
2022/02/09 04:09:26;;;;;;;7.88;4.55;;;7.10;30.40;;;;;;7365067;19;20483;-58
2022/02/09 04:12:03;;;;;;;9.27;4.80;;;7.10;30.30;;;;;;7363013;19;20011;-58
2022/02/09 04:14:42;;;;;;;10.23;4.32;;;7.10;30.00;;;;;;7365384;19;20045;-59
2022/02/09 04:17:26;;;;;;;9.35;4.95;;;7.10;30.30;;;;;;7368376;19;20094;-59
2022/02/09 04:20:20;;;;;;;13.23;4.47;;;7.00;30.00;;;;;;7363443;19;20549;-58
2022/02/09 04:36:33;;;;;;;9.57;3.85;;;7.10;29.50;;;;;;7364314;19;20007;-59
2022/02/09 04:39:11;;;;;;;8.70;4.72;;;7.10;29.40;;;;;;7364910;19;20074;-59
2022/02/09 04:42:02;;;;;;;9.38;4.45;;;7.10;29.00;;;;;;7361063;19;20520;-59
2022/02/09 04:47:32;;;;;;;11.55;5.30;;;7.10;28.80;;;;;;7365280;19;20486;-59
2022/02/09 04:52:58;;;;;;;9.68;5.20;;;7.10;29.40;;;;;;7366716;19;20114;-59
2022/02/09 04:55:42;;;;;;;11.45;4.93;;;7.10;29.70;;;;;;7365944;19;20010;-59
2022/02/09 04:58:21;;;;;;;10.68;4.97;;;7.00;28.70;;;;;;7364797;19;20018;-59
2022/02/09 05:00:59;;;;;;;10.20;4.68;;;7.00;29.30;;;;;;7382826;19;20086;-59
2022/02/09 05:03:58;;;;;;;11.27;4.50;;;7.00;29.40;;;;;;7360927;19;20111;-59
2022/02/09 05:23:25;;;;;;;9.38;4.00;;;7.10;26.00;;;;;;7360344;19;20139;-59
2022/02/09 05:26:03;;;;;;;8.68;4.63;;;7.10;26.00;;;;;;7364351;19;20093;-58
2022/02/09 05:28:34;;;;;;;6.82;4.10;;;7.10;25.40;;;;;;7362832;19;20015;-59
2022/02/09 05:31:06;;;;;;;6.60;4.18;;;7.10;25.70;;;;;;7359355;19;20421;-59
2022/02/09 05:33:36;;;;;;;8.15;4.05;;;7.10;25.90;;;;;;7382587;19;20074;-59
2022/02/09 05:36:07;;;;;;;9.13;4.30;;;7.10;26.10;;;;;;7362860;19;20014;-58
2022/02/09 05:38:39;;;;;;;6.13;3.80;;;7.10;25.70;;;;;;7364697;19;20035;-58
2022/02/09 05:41:09;;;;;;;8.93;4.05;;;7.10;25.70;;;;;;7357837;19;20534;-58
2022/02/09 05:43:39;;;;;;;6.55;4.00;;;7.20;24.80;;;;;;7362226;19;20021;-58
2022/02/09 05:46:44;;;;;;;7.55;3.72;;;7.20;24.40;;;;;;7365376;19;20018;-59
2022/02/09 05:51:53;;;;;;;6.97;3.47;;;7.20;24.40;;;;;;7378553;19;20003;-59
2022/02/09 05:54:45;;;;;;;6.40;3.47;;;7.20;24.40;;;;;;7363125;19;20011;-57
2022/02/09 05:57:27;;;;;;;8.05;3.35;;;7.20;24.40;;;;;;7364723;19;20482;-58
2022/02/09 05:59:57;;;;;;;7.53;3.40;;;7.20;24.00;;;;;;7357403;19;20573;-60
2022/02/09 06:02:27;;;;;;;8.55;3.83;;;7.10;24.30;;;;;;7361414;19;20078;-59
2022/02/09 06:04:56;;;;;;;6.97;3.70;;;7.20;23.40;;;;;;7362905;19;20074;-60
2022/02/09 06:07:27;;;;;;;7.30;3.60;;;7.20;23.50;;;;;;7362545;19;20022;-58
2022/02/09 06:09:59;;;;;;;5.40;3.15;;;7.20;23.10;;;;;;7379834;19;20018;-62
2022/02/09 06:12:35;;;;;;;10.95;3.92;;;7.20;22.80;;;;;;7385067;19;20043;-59
2022/02/09 06:15:32;;;;;;;9.75;3.60;;;7.20;22.50;;;;;;7360111;19;20028;-59
2022/02/09 06:20:49;;;;;;;6.60;3.28;;;7.20;22.80;;;;;;7357736;19;20007;-59
2022/02/09 06:23:19;;;;;;;10.45;3.33;;;7.20;23.00;;;;;;7361809;19;20070;-59
2022/02/09 06:25:52;;;;;;;6.82;2.85;;;7.10;22.70;;;;;;7361715;19;20376;-59
2022/02/09 06:28:23;;;;;;;6.25;3.60;;;7.20;21.80;;;;;;7362863;19;20813;-60
2022/02/09 06:30:55;;;;;;;6.28;3.53;;;7.20;21.80;;;;;;7381903;19;20011;-59
2022/02/09 06:33:25;;;;;;;6.20;3.08;;;7.20;21.80;;;;;;7358219;19;20015;-61
2022/02/09 06:35:59;;;;;;;6.30;3.38;;;7.20;22.00;;;;;;7361910;19;20015;-59
2022/02/09 06:38:30;;;;;;;9.10;3.60;;;7.20;22.00;;;;;;7359671;19;20014;-59
2022/02/09 06:41:02;;;;;;;7.75;3.40;;;7.20;21.70;;;;;;7356389;19;20013;-59
2022/02/09 06:43:33;;;;;;;4.82;2.58;;;7.20;21.50;;;;;;7361025;19;20024;-59
2022/02/09 06:46:04;;;;;;;9.18;3.10;;;7.20;21.00;;;;;;7364678;19;20362;-60
2022/02/09 06:48:34;;;;;;;4.50;2.50;;;7.20;21.00;;;;;;7380910;19;20121;-59
2022/02/09 06:51:09;;;;;;;4.93;2.85;;;7.20;21.00;;;;;;7355793;19;20057;-59
2022/02/09 06:53:45;;;;;;;5.30;2.53;;;7.20;21.00;;;;;;7360337;19;20070;-59
2022/02/09 06:56:26;;;;;;;5.28;2.53;;;7.20;20.30;;;;;;7361136;19;20014;-59
2022/02/09 06:59:11;;;;;;;4.82;3.03;;;7.20;20.10;;;;;;7360886;19;20053;-60
2022/02/09 07:01:41;;;;;;;5.38;2.42;;;7.30;19.50;;;;;;7353586;19;20094;-59
2022/02/09 07:04:11;;;;;;;5.50;2.70;;;7.30;19.10;;;;;;7356558;19;20180;-60
2022/02/09 07:06:41;;;;;;;6.30;2.33;;;7.30;19.40;;;;;;7382314;19;20221;-59
2022/02/09 07:09:11;;;;;;;5.70;2.53;;;7.40;19.30;;;;;;7360266;19;20070;-61
2022/02/09 07:11:43;;;;;;;5.75;2.55;;;7.40;18.60;;;;;;7354866;19;20010;-59
2022/02/09 07:14:13;;;;;;;3.78;2.25;;;7.40;17.80;;;;;;7358698;19;20079;-59
2022/02/09 07:16:43;;;;;;;4.22;2.22;;;7.50;17.50;;;;;;7362856;19;20022;-59
2022/02/09 07:19:13;;;;;;;4.75;2.17;;;7.40;17.30;;;;;;7358893;19;20463;-59
2022/02/09 07:21:43;;;;;;;4.80;2.33;;;7.50;17.70;;;;;;7376167;19;20033;-60
2022/02/09 07:24:15;;;;;;;5.90;2.47;;;7.50;17.70;;;;;;7360965;19;20006;-60
2022/02/09 07:27:21;;;;;;;9.63;2.50;;;7.60;17.70;;;;;;7360726;19;20786;-60
2022/02/09 07:29:41;;;;;;;5.68;3.00;;;7.60;16.80;;;;;;7361571;19;20010;-59
2022/02/09 07:32:12;;;;;;;5.20;2.67;;;7.60;17.00;;;;;;7366537;19;20066;-59
2022/02/09 07:34:42;;;;;;;5.95;2.83;;;7.70;16.50;;;;;;7364257;19;20078;-59
2022/02/09 07:37:12;;;;;;;5.10;2.42;;;7.80;16.00;;;;;;7367074;19;20049;-60
2022/02/09 07:39:42;;;;;;;7.82;2.83;;;7.90;15.50;;;;;;7385414;19;20730;-60
2022/02/09 07:42:22;;;;;;;5.00;2.55;;;7.90;14.40;;;;;;7364850;19;20002;-60
2022/02/09 07:45:03;;;;;;;4.65;2.22;;;8.00;14.50;;;;;;7362509;19;20424;-60
2022/02/09 07:47:46;;;;;;;7.43;3.20;;;8.20;13.80;;;;;;7367750;19;20021;-60
2022/02/09 07:50:36;;;;;;;10.43;4.38;;;8.30;12.20;;;;;;7365435;19;20018;-60
2022/02/09 07:53:12;;;;;;;6.43;2.72;;;8.40;11.20;;;;;;7362185;19;20110;-60
2022/02/09 07:55:42;;;;;;;5.43;2.70;;;8.50;11.20;;;;;;7366051;19;20473;-59
2022/02/09 07:58:15;;;;;;;6.65;2.67;;;8.60;9.50;;;;;;7367194;19;20377;-59
2022/02/09 08:00:45;;;;;;;6.20;2.50;;;8.50;9.90;;;;;;7384842;19;20018;-59
2022/02/09 08:03:15;;;;;;;9.57;2.38;;;8.50;9.90;;;;;;7361453;19;20035;-58
2022/02/09 08:05:48;;;;;;;5.68;2.78;;;8.40;9.50;;;;;;7368316;19;20014;-60
2022/02/09 08:08:18;;;;;;;7.40;3.00;;;8.40;10.00;;;;;;7365727;19;20026;-59
2022/02/09 08:10:52;;;;;;;8.88;3.05;;;8.30;9.90;;;;;;7364617;19;20076;-59
2022/02/09 08:27:36;;;;;;;5.10;2.80;;;8.30;11.10;;;;;;7367366;19;20073;-60
2022/02/09 08:30:32;;;;;;;4.93;2.58;;;8.40;11.10;;;;;;7360473;19;20466;-59
2022/02/09 08:33:08;;;;;;;7.22;3.17;;;8.30;11.10;;;;;;7360358;19;20499;-59
2022/02/09 08:35:38;;;;;;;5.93;2.50;;;8.40;11.10;;;;;;7367624;19;20039;-58
2022/02/09 08:38:08;;;;;;;7.35;2.70;;;8.40;10.00;;;;;;7363525;19;20074;-59
2022/02/09 08:40:38;;;;;;;7.75;3.25;;;8.40;9.90;;;;;;7363648;19;20440;-59
2022/02/09 08:43:09;;;;;;;5.78;2.72;;;8.50;9.40;;;;;;7362479;19;20095;-59
2022/02/09 08:45:42;;;;;;;6.05;2.42;;;8.50;9.80;;;;;;7385820;19;20014;-60
2022/02/09 08:48:13;;;;;;;7.50;2.42;;;8.50;9.70;;;;;;7363277;19;20014;-59
2022/02/09 08:50:43;;;;;;;4.88;2.58;;;8.60;9.00;;;;;;7364111;19;20018;-59
2022/02/09 08:53:13;;;;;;;5.63;2.60;;;8.60;8.50;;;;;;7358821;19;20010;-59
2022/02/09 08:55:43;;;;;;;6.22;2.75;;;8.70;8.50;;;;;;7364962;19;20011;-59
2022/02/09 08:58:15;;;;;;;6.32;2.25;;;8.70;8.00;;;;;;7365626;19;20014;-59
2022/02/09 09:00:48;;;;;;;6.05;2.00;;;8.70;8.20;;;;;;7382144;19;20510;-58
2022/02/09 09:03:23;;;;;;;5.50;2.70;;;8.70;8.00;;;;;;7356691;19;20041;-59
2022/02/09 09:05:57;;;;;;;;;;;8.80;8.00;;;;;;7366427;19;20014;-59
2022/02/09 09:58:12;;;;;;;7.45;2.42;;;9.80;2.10;;;;;;7383027;19;20081;-59
2022/02/09 10:03:58;;;;;;;6.00;1.75;;;10.00;1.00;;;;;;7357964;19;20029;-59
2022/02/09 10:34:20;;;;;;;9.90;3.80;;;9.80;1.00;;;;;;7356785;19;20090;-59
2022/02/09 10:36:52;;;;;;;9.43;3.83;;;9.90;1.00;;;;;;7385400;19;20027;-59
2022/02/09 10:39:33;;;;;;;5.38;3.45;;;10.00;1.00;;;;;;7361753;19;20002;-59
2022/02/09 10:42:14;;;;;;;9.70;3.75;;;10.20;1.00;;;;;;7357785;19;20506;-60
2022/02/09 10:44:48;;;;;;;10.55;4.50;;;10.40;1.00;;;;;;7359545;19;20047;-60
2022/02/09 10:47:23;;;;;;;9.18;3.50;;;10.50;1.00;;;;;;7362759;19;20011;-60
2022/02/09 10:50:18;;;;;;;11.48;3.95;;;10.60;1.00;;;;;;7358013;19;20006;-60
2022/02/09 10:52:49;;;;;;;9.20;4.28;;;10.60;1.00;;;;;;7358400;19;20077;-59
2022/02/09 10:55:34;;;;;;;9.18;3.88;;;10.60;1.00;;;;;;7360285;19;20014;-59
2022/02/09 10:58:05;;;;;;;;;;;10.30;1.00;;;;;;7360958;19;20014;-59
2022/02/09 11:00:35;;;;;;;11.02;3.80;;;10.50;1.00;;;;;;7379160;19;20312;-59
2022/02/09 11:03:05;;;;;;;8.38;3.33;;;10.70;1.00;;;;;;7359641;19;20517;-59
2022/02/09 11:05:35;;;;;;;10.77;3.85;;;10.70;1.00;;;;;;7369723;19;20010;-59
2022/02/09 11:08:06;;;;;;;7.18;3.75;;;10.60;1.00;;;;;;7367541;19;20031;-58
2022/02/09 11:10:38;;;;;;;8.05;3.53;;;10.70;1.00;;;;;;7366768;19;20047;-59
2022/02/09 11:13:09;;;;;;;8.88;3.70;;;10.90;1.00;;;;;;7359932;19;20018;-58
2022/02/09 11:15:41;;;;;;;6.95;3.55;;;10.90;1.00;;;;;;7385763;19;20011;-58
2022/02/09 11:18:15;;;;;;;4.47;2.53;;;10.90;1.00;;;;;;7364964;19;20082;-58
2022/02/09 11:21:12;;;;;;;5.97;3.20;;;10.90;1.00;;;;;;7365954;19;20007;-59
2022/02/09 11:23:45;;;;;;;7.28;2.70;;;10.90;1.00;;;;;;7362217;19;20866;-59
2022/02/09 11:26:42;;;;;;;5.00;2.95;;;11.10;1.00;;;;;;7368830;19;20007;-59
2022/02/09 11:29:45;;;;;;;10.07;3.22;;;11.10;1.00;;;;;;7366118;19;20108;-59
2022/02/09 11:32:23;;;;;;;5.93;2.80;;;11.20;1.00;;;;;;7365384;19;20010;-60
2022/02/09 11:35:23;;;;;;;7.90;3.67;;;11.00;1.00;;;;;;7363193;19;20032;-60
2022/02/09 11:40:48;;;;;;;11.18;2.95;;;11.20;1.00;;;;;;7365611;19;20114;-60
2022/02/09 11:44:00;;;;;;;7.40;3.25;;;11.00;1.00;;;;;;7361201;19;20550;-59
2022/02/09 11:56:15;;;;;;;6.68;2.78;;;11.50;1.00;;;;;;7363398;19;20019;-58
2022/02/09 11:58:49;;;;;;;5.22;2.40;;;11.20;1.00;;;;;;7367118;19;20017;-59
2022/02/09 12:08:41;;;;;;;5.20;3.00;;;11.40;1.00;;;;;;7361262;19;20113;-59
2022/02/09 12:10:27;;;;;;;4.65;2.25;;;11.70;1.00;;;;;;7364766;19;20004;-59
2022/02/09 12:13:04;;;;;;;6.68;2.63;;;11.70;1.00;;;;;;7382453;19;20466;-64
2022/02/09 12:18:36;;;;;;;7.40;2.90;;;11.70;1.00;;;;;;7364446;19;20027;-60
2022/02/09 12:21:16;;;;;;;9.15;2.80;;;11.70;1.00;;;;;;7362965;19;20479;-60
2022/02/09 12:23:48;;;;;;;13.15;2.78;;;11.80;1.00;;;;;;7361331;19;20084;-59
2022/02/09 12:26:22;;;;;;;10.60;3.00;;;11.90;1.00;;;;;;7367780;19;20390;-60
2022/02/09 12:28:59;;;;;;;7.63;2.60;;;11.90;1.00;;;;;;7366621;19;20006;-61
2022/02/09 12:31:36;;;;;;;5.90;2.65;;;11.70;1.00;;;;;;7360858;19;20522;-60
2022/02/09 12:34:08;;;;;;;8.23;3.08;;;11.80;1.00;;;;;;7362465;19;20039;-60
2022/02/09 12:36:39;;;;;;;6.00;2.72;;;11.80;1.00;;;;;;7389477;19;20023;-60
2022/02/09 12:39:12;;;;;;;8.25;2.90;;;11.90;1.00;;;;;;7361506;19;20011;-60
2022/02/09 12:41:43;;;;;;;6.35;2.85;;;12.10;1.00;;;;;;7357795;19;20014;-60
2022/02/09 12:44:13;;;;;;;5.45;2.72;;;12.10;1.00;;;;;;7362602;19;20031;-61
2022/02/09 12:46:45;;;;;;;8.02;2.85;;;12.20;1.00;;;;;;7363709;19;20067;-61
2022/02/09 12:49:21;;;;;;;7.18;2.63;;;12.30;1.00;;;;;;7363363;19;20550;-60
2022/02/09 12:51:52;;;;;;;5.88;3.00;;;12.20;1.00;;;;;;7381709;19;20035;-61
2022/02/09 12:54:23;;;;;;;7.53;2.60;;;12.00;1.00;;;;;;7359336;19;20040;-61
2022/02/09 12:56:56;;;;;;;8.43;3.08;;;12.00;1.00;;;;;;7363902;19;20015;-60
2022/02/09 12:59:30;;;;;;;6.13;3.50;;;12.10;1.00;;;;;;7365353;19;20093;-62
2022/02/09 13:02:06;;;;;;;6.53;2.58;;;12.20;1.00;;;;;;7363199;19;20021;-63
2022/02/09 13:04:41;;;;;;;6.60;2.50;;;12.20;1.00;;;;;;7359946;19;20002;-59
2022/02/09 13:07:16;;;;;;;6.60;2.92;;;12.20;1.00;;;;;;7366808;19;20528;-59
2022/02/09 13:09:51;;;;;;;9.60;3.10;;;12.20;1.00;;;;;;7383232;19;20007;-59
2022/02/09 13:12:24;;;;;;;;;;;12.20;1.00;;;;;;7362176;19;20013;-59
2022/02/09 13:15:00;;;;;;;6.50;2.70;;;12.20;1.00;;;;;;7359373;19;19984;-59
2022/02/09 13:17:54;;;;;;;8.50;2.33;;;12.30;1.00;;;;;;7363561;19;20011;-60
2022/02/09 13:21:02;;;;;;;6.68;2.50;;;12.30;1.00;;;;;;7360949;19;20010;-60
2022/02/09 13:23:51;;;;;;;5.03;2.58;;;12.30;1.00;;;;;;7356211;19;20002;-58
2022/02/09 14:11:29;;;;;;;6.85;2.90;;;12.30;1.00;;;;;;7359686;19;20381;-60
2022/02/09 14:14:11;;;;;;;7.70;2.50;;;12.20;1.00;;;;;;7360244;19;20078;-59
2022/02/09 14:23:45;;;;;;;6.75;2.67;;;12.20;1.00;;;;;;7362376;19;20502;-59
2022/02/09 14:52:52;;;;;;;7.93;2.28;;;12.20;1.00;;;;;;7366250;19;20007;-60
2022/02/09 14:55:31;;;;;;;4.78;2.53;;;12.20;1.00;;;;;;7365016;19;20410;-60
2022/02/09 14:58:09;;;;;;;5.03;2.85;;;12.10;1.00;;;;;;7364720;19;20564;-61
2022/02/09 15:00:53;;;;;;;5.45;2.95;;;12.10;1.00;;;;;;7388931;19;20091;-60
2022/02/09 15:03:42;;;;;;;6.22;2.58;;;12.10;1.00;;;;;;7363927;19;20014;-59
2022/02/09 15:09:02;;;;;;;4.75;2.40;;;12.30;1.00;;;;;;7364968;19;20049;-60
2022/02/09 15:11:36;;;;;;;6.60;2.60;;;12.30;1.00;;;;;;7366636;19;20014;-61
2022/02/09 15:14:13;;;;;;;5.38;2.42;;;12.20;1.00;;;;;;7364616;19;20090;-60
2022/02/09 15:16:57;;;;;;;4.60;2.28;;;12.20;1.00;;;;;;7369348;19;20010;-59
2022/02/09 15:19:40;;;;;;;4.57;2.33;;;12.20;1.00;;;;;;7367715;19;20014;-59
2022/02/09 15:22:12;;;;;;;15.32;2.55;;;12.00;1.00;;;;;;7365641;19;20006;-60
2022/02/09 15:24:45;;;;;;;8.13;2.92;;;12.20;1.00;;;;;;7380963;19;20018;-61
2022/02/09 15:27:21;;;;;;;5.82;2.75;;;12.10;1.00;;;;;;7366303;19;20029;-60
2022/02/09 15:29:53;;;;;;;6.70;3.05;;;12.10;1.00;;;;;;7364468;19;20029;-60
2022/02/09 15:32:31;;;;;;;11.80;3.00;;;12.00;1.00;;;;;;7364925;19;20097;-60
2022/02/09 15:35:07;;;;;;;7.28;3.30;;;11.80;1.00;;;;;;7361710;19;20101;-60
2022/02/09 15:37:44;;;;;;;5.30;2.70;;;11.70;1.00;;;;;;7370204;19;20508;-60
2022/02/09 15:40:27;;;;;;;4.47;2.33;;;11.80;1.00;;;;;;7364050;19;20015;-60
2022/02/09 15:43:10;;;;;;;5.70;2.45;;;11.80;1.00;;;;;;7383943;19;20470;-59
2022/02/09 15:56:47;;;;;;;4.47;2.30;;;11.70;1.00;;;;;;7368028;19;20034;-59
2022/02/09 15:59:37;;;;;;;6.40;2.72;;;11.60;1.00;;;;;;7365775;19;20015;-59
2022/02/09 16:24:27;;;;;;;4.60;2.72;;;10.90;1.00;;;;;;7362019;19;20489;-59
2022/02/09 16:38:02;;;;;;;9.30;3.40;;;10.80;1.00;;;;;;7368714;19;20010;-60
2022/02/09 16:48:56;;;;;;;6.05;2.92;;;10.20;1.00;;;;;;7387277;19;20014;-60
2022/02/09 16:51:28;;;;;;;5.85;3.35;;;10.10;1.00;;;;;;7361492;19;20422;-60
2022/02/09 16:54:10;;;;;;;6.00;3.17;;;10.00;1.00;;;;;;7358445;19;20009;-60
2022/02/09 16:56:59;;;;;;;6.78;3.83;;;9.90;1.00;;;;;;7367362;19;20009;-58
2022/02/09 17:18:50;;;;;;;10.85;4.88;;;9.40;1.60;;;;;;7385660;19;20022;-60
2022/02/09 17:21:23;;;;;;;11.20;5.05;;;9.40;2.20;;;;;;7361665;19;20450;-60
2022/02/09 17:24:02;;;;;;;7.20;4.03;;;9.40;2.30;;;;;;7359278;19;20367;-60
2022/02/09 17:26:35;;;;;;;9.10;4.15;;;9.50;2.30;;;;;;7365610;19;20006;-60
2022/02/09 17:29:05;;;;;;;7.88;4.35;;;9.60;1.50;;;;;;7364514;19;20419;-60
2022/02/09 17:31:50;;;;;;;13.70;5.28;;;9.80;1.60;;;;;;7363413;19;20053;-61
2022/02/09 17:37:15;;;;;;;8.63;4.60;;;9.70;1.80;;;;;;7363590;19;20022;-60
2022/02/09 17:53:32;;;;;;;10.30;4.78;;;9.30;4.90;;;;;;7358447;19;20101;-59
2022/02/09 17:56:05;;;;;;;8.73;4.40;;;9.30;4.70;;;;;;7362380;19;20851;-61
2022/02/09 17:58:46;;;;;;;13.43;5.57;;;9.10;7.00;;;;;;7362400;19;20006;-59
2022/02/09 18:01:18;;;;;;;8.15;4.78;;;9.00;7.10;;;;;;7362379;19;20522;-59
2022/02/09 18:03:54;;;;;;;7.78;4.43;;;9.10;6.70;;;;;;7381192;19;20694;-60
2022/02/09 18:06:30;;;;;;;11.30;5.55;;;9.10;6.50;;;;;;7362537;19;20003;-58
2022/02/09 18:09:06;;;;;;;13.70;5.60;;;8.90;7.40;;;;;;7362275;19;20029;-60
2022/02/09 18:11:48;;;;;;;9.95;6.07;;;8.70;8.50;;;;;;7360860;19;20007;-60
2022/02/09 18:15:00;;;;;;;17.40;6.07;;;8.60;9.00;;;;;;7358519;19;20018;-60
2022/02/09 18:26:51;;;;;;;18.83;9.50;;;7.90;14.30;;;;;;7362369;19;20066;-59
2022/02/09 18:29:21;;;;;;;22.00;9.95;;;7.90;16.10;;;;;;7361419;19;20098;-59
2022/02/09 18:38:12;;;;;;;16.40;8.15;;;8.00;16.10;;;;;;7361392;19;20046;-60
2022/02/09 18:43:27;;;;;;;13.02;7.15;;;7.90;16.20;;;;;;7357879;19;20019;-60
2022/02/09 18:46:04;;;;;;;12.35;7.72;;;7.90;16.60;;;;;;7386611;19;20366;-59
2022/02/09 18:49:01;;;;;;;15.00;8.60;;;7.80;16.10;;;;;;7361544;19;20089;-60
2022/02/09 18:57:02;;;;;;;12.80;7.72;;;7.60;16.50;;;;;;7364459;19;20471;-60
2022/02/09 18:59:38;;;;;;;11.70;7.03;;;7.40;16.70;;;;;;7359260;19;20486;-59
2022/02/09 19:02:32;;;;;;;16.30;8.00;;;7.30;17.30;;;;;;7361100;19;20090;-59
2022/02/09 19:05:17;;;;;;;10.48;6.90;;;7.20;17.60;;;;;;7359768;19;20077;-59
2022/02/09 19:16:24;;;;;;;23.35;10.07;;;7.00;19.80;;;;;;7384987;19;20015;-60
2022/02/09 19:19:10;;;;;;;17.83;9.63;;;7.00;20.20;;;;;;7258054;19;2004606;-59
2022/02/09 19:27:41;;;;;;;14.85;9.00;;;6.90;20.80;;;;;;7370345;19;20360;-60
2022/02/09 19:30:04;;;;;;;15.68;9.43;;;6.90;22.00;;;;;;7363924;19;20010;-60
2022/02/09 19:32:58;;;;;;;17.42;8.98;;;6.90;21.90;;;;;;7365888;19;20082;-60
2022/02/09 19:46:40;;;;;;;16.10;7.95;;;6.70;23.30;;;;;;7368003;19;20025;-59
2022/02/09 19:49:16;;;;;;;11.35;6.85;;;6.60;23.40;;;;;;7367807;19;20010;-58
2022/02/09 19:52:01;;;;;;;8.82;5.75;;;6.70;23.70;;;;;;7386655;19;20014;-58
2022/02/09 19:54:46;;;;;;;14.05;6.30;;;6.60;22.80;;;;;;7363312;19;20003;-58
2022/02/09 19:57:19;;;;;;;13.38;6.20;;;6.60;23.50;;;;;;7369888;19;20074;-58
2022/02/09 19:59:50;;;;;;;9.82;6.03;;;6.50;23.00;;;;;;7361981;19;20017;-59
2022/02/09 20:02:20;;;;;;;12.98;6.43;;;6.50;23.30;;;;;;7366666;19;20032;-58
2022/02/09 20:04:55;;;;;;;11.32;5.90;;;6.40;23.90;;;;;;7364424;19;20074;-59
2022/02/09 20:07:25;;;;;;;12.63;6.28;;;6.40;23.60;;;;;;7364935;19;20477;-60
2022/02/09 20:10:21;;;;;;;10.10;6.40;;;6.40;23.70;;;;;;7365474;19;20095;-60
2022/02/09 20:12:52;;;;;;;11.82;6.50;;;6.40;24.00;;;;;;7390031;19;20027;-59
2022/02/09 20:15:22;;;;;;;11.77;6.63;;;6.30;24.40;;;;;;7361707;19;20010;-60
2022/02/09 20:17:52;;;;;;;12.98;6.80;;;6.30;24.90;;;;;;7366404;19;20070;-60
2022/02/09 20:20:26;;;;;;;10.40;6.88;;;6.30;24.80;;;;;;7366627;19;20721;-60
2022/02/09 20:22:58;;;;;;;12.10;6.90;;;6.50;24.30;;;;;;7365656;19;20003;-60
2022/02/09 20:25:32;;;;;;;10.52;6.20;;;6.50;23.40;;;;;;7365460;19;20035;-60
2022/02/09 20:28:02;;;;;;;10.75;6.65;;;6.50;23.50;;;;;;7366313;19;20093;-59
2022/02/09 20:30:38;;;;;;;12.93;6.32;;;6.50;23.00;;;;;;7387883;19;20336;-59
2022/02/09 20:33:12;;;;;;;10.40;6.90;;;6.30;23.90;;;;;;7361635;19;20035;-59
2022/02/09 20:35:42;;;;;;;11.50;6.57;;;6.30;23.90;;;;;;7363265;19;20007;-59
2022/02/09 20:38:18;;;;;;;14.63;7.22;;;6.20;24.60;;;;;;7366580;19;20010;-60
2022/02/09 20:40:53;;;;;;;12.57;7.13;;;6.20;25.50;;;;;;7363951;19;20021;-60
2022/02/09 20:43:24;;;;;;;12.65;7.70;;;6.20;25.90;;;;;;7360066;19;20562;-60
2022/02/09 20:45:58;;;;;;;15.57;7.00;;;6.10;26.40;;;;;;7388921;19;20035;-59
2022/02/09 20:48:28;;;;;;;16.63;9.40;;;6.10;26.40;;;;;;7364928;19;20010;-59
2022/02/09 20:51:01;;;;;;;22.20;12.57;;;6.20;27.10;;;;;;7361832;19;20078;-59
2022/02/09 20:53:32;;;;;;;27.08;14.20;;;6.10;26.60;;;;;;7361183;19;20561;-61
2022/02/09 20:56:04;;;;;;;21.42;12.25;;;6.30;26.10;;;;;;7364730;19;20028;-59
2022/02/09 20:58:38;;;;;;;21.67;10.35;;;6.10;25.80;;;;;;7364540;19;20015;-59
2022/02/09 21:01:11;;;;;;;14.25;7.72;;;6.10;25.90;;;;;;7364690;19;20022;-60
2022/02/09 21:03:48;;;;;;;13.50;6.80;;;6.20;27.20;;;;;;7383108;19;20127;-59
2022/02/09 21:06:33;;;;;;;12.27;7.68;;;6.10;26.00;;;;;;7364139;19;20035;-61
2022/02/09 21:09:11;;;;;;;12.40;7.10;;;6.10;26.40;;;;;;7356686;19;20490;-59
2022/02/09 21:11:54;;;;;;;12.32;7.18;;;6.10;26.30;;;;;;7362907;19;20013;-59
2022/02/09 21:14:45;;;;;;;16.67;8.07;;;6.00;27.00;;;;;;7358296;19;20090;-60
2022/02/09 21:17:26;;;;;;;17.00;8.13;;;6.10;26.70;;;;;;7366207;19;20010;-59
2022/02/09 21:20:25;;;;;;;14.63;8.68;;;6.00;27.00;;;;;;7361968;19;20006;-59
2022/02/09 21:23:20;;;;;;;14.32;8.27;;;5.90;27.00;;;;;;7363874;19;20416;-60
2022/02/09 21:31:58;;;;;;;13.95;7.05;;;5.80;27.60;;;;;;7363558;19;20078;-60
2022/02/09 21:53:48;;;;;;;15.15;7.85;;;5.40;30.90;;;;;;7358738;19;20070;-59
2022/02/09 21:56:24;;;;;;;14.00;7.55;;;5.30;31.40;;;;;;7365111;19;20030;-59
2022/02/09 22:01:55;;;;;;;13.30;7.43;;;5.20;32.30;;;;;;7360684;19;20010;-59
2022/02/09 22:21:53;;;;;;;17.17;7.90;;;4.80;34.30;;;;;;7359634;19;20016;-59
2022/02/09 22:49:16;;;;;;;16.92;8.05;;;4.60;36.80;;;;;;7384973;19;20493;-59
2022/02/09 22:54:36;;;;;;;;;;;4.70;35.70;;;;;;7355198;19;20491;-59
2022/02/09 22:57:06;;;;;;;13.27;7.40;;;4.70;33.80;;;;;;7362544;19;19907;-59
2022/02/09 22:59:43;;;;;;;13.55;7.55;;;4.60;33.30;;;;;;7367276;19;20077;-61
2022/02/09 23:02:23;;;;;;;17.23;7.55;;;4.60;33.50;;;;;;7368732;19;20006;-59
2022/02/09 23:05:15;;;;;;;15.25;7.72;;;4.60;31.90;;;;;;7368473;19;20014;-60
2022/02/09 23:08:00;;;;;;;13.45;8.38;;;4.60;32.30;;;;;;7370871;19;20010;-60
2022/02/09 23:10:47;;;;;;;18.50;8.07;;;4.70;31.10;;;;;;7369996;19;20045;-60
2022/02/09 23:13:22;;;;;;;13.10;7.38;;;4.50;30.30;;;;;;7362063;19;20077;-59
2022/02/09 23:16:08;;;;;;;14.77;7.57;;;4.60;30.10;;;;;;7391116;19;20077;-59
2022/02/09 23:19:27;;;;;;;15.52;7.57;;;4.50;30.00;;;;;;7368818;19;20010;-60
2022/02/09 23:21:56;;;;;;;14.57;7.85;;;4.50;29.70;;;;;;7367405;19;20467;-59
2022/02/09 23:25:12;;;;;;;13.80;7.72;;;4.40;29.80;;;;;;7363113;19;20089;-59
2022/02/09 23:55:31;;;;;;;14.25;7.50;;;4.10;28.40;;;;;;7385668;19;20450;-60
